sensor_id;sensor_type;location;lat;lon;timestamp;pressure;altitude;pressure_sealevel;temperature;humidity
70968;BME280;58629;48.808;8.820;2022-12-08T00:02:01;96726.69;;;-0.97;97.82
70968;BME280;58629;48.808;8.820;2022-12-08T00:04:27;96727.72;;;-1.02;97.58
70968;BME280;58629;48.808;8.820;2022-12-08T00:06:52;96723.88;;;-1.08;97.00
70968;BME280;58629;48.808;8.820;2022-12-08T00:09:38;96718.25;;;-1.10;97.13
70968;BME280;58629;48.808;8.820;2022-12-08T00:12:12;96715.31;;;-1.08;97.83
70968;BME280;58629;48.808;8.820;2022-12-08T00:14:40;96707.53;;;-1.08;97.93
70968;BME280;58629;48.808;8.820;2022-12-08T00:17:07;96709.03;;;-1.07;98.13
70968;BME280;58629;48.808;8.820;2022-12-08T00:19:34;96702.75;;;-1.06;97.56
70968;BME280;58629;48.808;8.820;2022-12-08T00:21:59;96703.09;;;-1.08;97.89
70968;BME280;58629;48.808;8.820;2022-12-08T00:24:29;96704.03;;;-1.16;97.03
70968;BME280;58629;48.808;8.820;2022-12-08T00:26:55;96700.31;;;-1.15;98.05
70968;BME280;58629;48.808;8.820;2022-12-08T00:29:20;96696.91;;;-1.19;98.30
70968;BME280;58629;48.808;8.820;2022-12-08T00:31:46;96688.78;;;-1.17;98.29
70968;BME280;58629;48.808;8.820;2022-12-08T00:34:12;96696.91;;;-1.19;97.51
70968;BME280;58629;48.808;8.820;2022-12-08T00:36:38;96696.44;;;-1.24;96.64
70968;BME280;58629;48.808;8.820;2022-12-08T00:39:03;96691.16;;;-1.28;96.59
70968;BME280;58629;48.808;8.820;2022-12-08T00:41:28;96690.34;;;-1.32;96.80
70968;BME280;58629;48.808;8.820;2022-12-08T00:44:15;96688.75;;;-1.36;96.76
70968;BME280;58629;48.808;8.820;2022-12-08T00:46:41;96693.22;;;-1.37;97.50
70968;BME280;58629;48.808;8.820;2022-12-08T00:49:07;96695.13;;;-1.34;97.58
70968;BME280;58629;48.808;8.820;2022-12-08T00:51:33;96687.66;;;-1.35;97.33
70968;BME280;58629;48.808;8.820;2022-12-08T00:53:58;96689.16;;;-1.34;98.15
70968;BME280;58629;48.808;8.820;2022-12-08T00:56:24;96690.94;;;-1.38;97.63
70968;BME280;58629;48.808;8.820;2022-12-08T00:58:50;96693.50;;;-1.57;97.10
70968;BME280;58629;48.808;8.820;2022-12-08T01:01:15;96695.09;;;-1.68;99.23
70968;BME280;58629;48.808;8.820;2022-12-08T01:03:41;96700.78;;;-1.63;99.78
70968;BME280;58629;48.808;8.820;2022-12-08T01:06:07;96689.72;;;-1.60;99.29
70968;BME280;58629;48.808;8.820;2022-12-08T01:08:33;96695.19;;;-1.65;98.66
70968;BME280;58629;48.808;8.820;2022-12-08T01:11:03;96693.00;;;-1.63;98.46
70968;BME280;58629;48.808;8.820;2022-12-08T01:13:29;96687.47;;;-1.61;98.45
70968;BME280;58629;48.808;8.820;2022-12-08T01:15:54;96691.06;;;-1.66;98.02
70968;BME280;58629;48.808;8.820;2022-12-08T01:18:19;96697.72;;;-1.68;98.17
70968;BME280;58629;48.808;8.820;2022-12-08T01:20:45;96697.34;;;-1.67;98.62
70968;BME280;58629;48.808;8.820;2022-12-08T01:23:10;96695.59;;;-1.63;98.71
70968;BME280;58629;48.808;8.820;2022-12-08T01:25:35;96699.63;;;-1.65;98.20
70968;BME280;58629;48.808;8.820;2022-12-08T01:28:01;96695.44;;;-1.70;97.65
70968;BME280;58629;48.808;8.820;2022-12-08T01:30:26;96689.09;;;-1.72;98.11
70968;BME280;58629;48.808;8.820;2022-12-08T01:32:51;96688.97;;;-1.76;97.38
70968;BME280;58629;48.808;8.820;2022-12-08T01:35:16;96695.19;;;-1.81;97.49
70968;BME280;58629;48.808;8.820;2022-12-08T01:37:43;96688.50;;;-1.82;96.78
70968;BME280;58629;48.808;8.820;2022-12-08T01:40:08;96679.47;;;-1.88;97.38
70968;BME280;58629;48.808;8.820;2022-12-08T01:42:33;96678.78;;;-1.85;97.60
70968;BME280;58629;48.808;8.820;2022-12-08T01:45:06;96682.72;;;-1.91;97.97
70968;BME280;58629;48.808;8.820;2022-12-08T01:47:40;96677.63;;;-1.87;98.76
70968;BME280;58629;48.808;8.820;2022-12-08T01:50:09;96680.97;;;-1.87;98.74
70968;BME280;58629;48.808;8.820;2022-12-08T01:52:46;96683.16;;;-1.89;97.59
70968;BME280;58629;48.808;8.820;2022-12-08T01:55:19;96679.38;;;-1.91;97.43
70968;BME280;58629;48.808;8.820;2022-12-08T01:57:48;96679.31;;;-1.95;97.31
70968;BME280;58629;48.808;8.820;2022-12-08T02:00:17;96675.53;;;-1.97;97.01
70968;BME280;58629;48.808;8.820;2022-12-08T02:03:03;96676.22;;;-2.00;97.72
70968;BME280;58629;48.808;8.820;2022-12-08T02:05:32;96669.84;;;-2.03;97.37
70968;BME280;58629;48.808;8.820;2022-12-08T02:07:59;96664.72;;;-1.99;97.29
70968;BME280;58629;48.808;8.820;2022-12-08T02:10:28;96664.31;;;-2.01;96.84
70968;BME280;58629;48.808;8.820;2022-12-08T02:12:55;96654.69;;;-2.01;96.87
70968;BME280;58629;48.808;8.820;2022-12-08T02:15:29;96652.44;;;-2.02;97.19
70968;BME280;58629;48.808;8.820;2022-12-08T02:18:06;96655.78;;;-2.02;96.84
70968;BME280;58629;48.808;8.820;2022-12-08T02:20:52;96649.44;;;-2.04;96.79
70968;BME280;58629;48.808;8.820;2022-12-08T02:23:32;96643.06;;;-2.07;96.63
70968;BME280;58629;48.808;8.820;2022-12-08T02:34:19;96636.03;;;-2.06;98.17
70968;BME280;58629;48.808;8.820;2022-12-08T02:37:01;96625.66;;;-2.06;98.42
70968;BME280;58629;48.808;8.820;2022-12-08T02:39:45;96624.97;;;-2.03;97.67
70968;BME280;58629;48.808;8.820;2022-12-08T02:42:27;96632.00;;;-2.04;98.03
70968;BME280;58629;48.808;8.820;2022-12-08T02:45:34;96628.59;;;-2.08;97.56
70968;BME280;58629;48.808;8.820;2022-12-08T02:48:02;96631.59;;;-2.06;97.58
70968;BME280;58629;48.808;8.820;2022-12-08T02:50:28;96630.44;;;-2.08;96.81
70968;BME280;58629;48.808;8.820;2022-12-08T02:52:54;96630.94;;;-2.18;97.72
70968;BME280;58629;48.808;8.820;2022-12-08T02:55:24;96626.19;;;-2.16;97.28
70968;BME280;58629;48.808;8.820;2022-12-08T03:03:43;96622.91;;;-2.29;97.55
70968;BME280;58629;48.808;8.820;2022-12-08T03:09:20;96622.00;;;-2.36;98.10
70968;BME280;58629;48.808;8.820;2022-12-08T03:11:58;96622.06;;;-2.33;97.41
70968;BME280;58629;48.808;8.820;2022-12-08T03:14:28;96606.09;;;-2.35;97.56
70968;BME280;58629;48.808;8.820;2022-12-08T03:16:56;96610.53;;;-2.35;96.62
70968;BME280;58629;48.808;8.820;2022-12-08T03:19:26;96603.00;;;-2.40;97.10
70968;BME280;58629;48.808;8.820;2022-12-08T03:21:55;96598.06;;;-2.45;96.26
70968;BME280;58629;48.808;8.820;2022-12-08T03:24:27;96597.31;;;-2.46;96.43
70968;BME280;58629;48.808;8.820;2022-12-08T03:26:58;96602.94;;;-2.44;95.93
70968;BME280;58629;48.808;8.820;2022-12-08T03:29:26;96593.97;;;-2.46;96.89
70968;BME280;58629;48.808;8.820;2022-12-08T03:32:00;96585.34;;;-2.50;96.31
70968;BME280;58629;48.808;8.820;2022-12-08T03:34:29;96590.13;;;-2.52;95.48
70968;BME280;58629;48.808;8.820;2022-12-08T03:36:55;96585.28;;;-2.54;96.65
70968;BME280;58629;48.808;8.820;2022-12-08T03:39:20;96586.44;;;-2.51;96.95
70968;BME280;58629;48.808;8.820;2022-12-08T03:41:46;96588.94;;;-2.55;96.03
70968;BME280;58629;48.808;8.820;2022-12-08T03:44:11;96581.84;;;-2.58;96.88
70968;BME280;58629;48.808;8.820;2022-12-08T03:46:36;96579.91;;;-2.61;96.90
70968;BME280;58629;48.808;8.820;2022-12-08T03:49:02;96570.31;;;-2.60;96.74
70968;BME280;58629;48.808;8.820;2022-12-08T03:51:27;96570.03;;;-2.71;96.12
70968;BME280;58629;48.808;8.820;2022-12-08T03:53:53;96569.81;;;-2.66;96.46
70968;BME280;58629;48.808;8.820;2022-12-08T03:56:27;96570.03;;;-2.71;96.04
70968;BME280;58629;48.808;8.820;2022-12-08T03:58:53;96561.94;;;-2.70;96.19
70968;BME280;58629;48.808;8.820;2022-12-08T04:01:18;96562.25;;;-2.71;96.07
70968;BME280;58629;48.808;8.820;2022-12-08T04:03:44;96567.78;;;-2.73;96.06
70968;BME280;58629;48.808;8.820;2022-12-08T04:06:09;96568.69;;;-2.81;95.44
70968;BME280;58629;48.808;8.820;2022-12-08T04:08:35;96562.03;;;-2.82;96.11
70968;BME280;58629;48.808;8.820;2022-12-08T04:11:00;96559.84;;;-2.80;97.37
70968;BME280;58629;48.808;8.820;2022-12-08T04:13:25;96557.25;;;-2.80;96.54
70968;BME280;58629;48.808;8.820;2022-12-08T04:15:51;96559.09;;;-2.80;95.83
70968;BME280;58629;48.808;8.820;2022-12-08T04:18:16;96560.09;;;-2.85;96.07
70968;BME280;58629;48.808;8.820;2022-12-08T04:20:43;96559.66;;;-2.87;96.06
70968;BME280;58629;48.808;8.820;2022-12-08T04:23:09;96553.41;;;-2.86;95.88
70968;BME280;58629;48.808;8.820;2022-12-08T04:25:35;96556.72;;;-2.85;95.69
70968;BME280;58629;48.808;8.820;2022-12-08T04:28:01;96553.31;;;-2.89;95.64
70968;BME280;58629;48.808;8.820;2022-12-08T04:30:26;96553.31;;;-2.89;95.79
70968;BME280;58629;48.808;8.820;2022-12-08T04:32:52;96560.56;;;-2.95;95.20
70968;BME280;58629;48.808;8.820;2022-12-08T04:35:17;96559.50;;;-2.94;96.48
70968;BME280;58629;48.808;8.820;2022-12-08T04:37:42;96555.50;;;-2.91;96.39
70968;BME280;58629;48.808;8.820;2022-12-08T04:40:09;96558.66;;;-2.98;96.12
70968;BME280;58629;48.808;8.820;2022-12-08T04:42:35;96557.34;;;-2.92;96.11
70968;BME280;58629;48.808;8.820;2022-12-08T04:45:00;96549.91;;;-2.93;96.04
70968;BME280;58629;48.808;8.820;2022-12-08T04:47:26;96544.31;;;-2.95;96.69
70968;BME280;58629;48.808;8.820;2022-12-08T04:49:51;96546.56;;;-2.94;96.06
70968;BME280;58629;48.808;8.820;2022-12-08T04:52:16;96542.44;;;-2.95;95.39
70968;BME280;58629;48.808;8.820;2022-12-08T04:54:41;96541.72;;;-2.95;95.42
70968;BME280;58629;48.808;8.820;2022-12-08T04:57:07;96544.19;;;-2.99;95.04
70968;BME280;58629;48.808;8.820;2022-12-08T04:59:32;96543.13;;;-2.98;95.31
70968;BME280;58629;48.808;8.820;2022-12-08T05:01:57;96544.03;;;-3.06;95.29
70968;BME280;58629;48.808;8.820;2022-12-08T05:04:22;96537.75;;;-3.05;95.81
70968;BME280;58629;48.808;8.820;2022-12-08T05:06:48;96539.69;;;-3.02;96.75
70968;BME280;58629;48.808;8.820;2022-12-08T05:09:13;96530.41;;;-3.03;96.88
70968;BME280;58629;48.808;8.820;2022-12-08T05:11:38;96530.41;;;-3.03;97.20
70968;BME280;58629;48.808;8.820;2022-12-08T05:14:09;96530.50;;;-2.99;97.52
70968;BME280;58629;48.808;8.820;2022-12-08T05:16:36;96530.16;;;-2.98;96.91
70968;BME280;58629;48.808;8.820;2022-12-08T05:19:01;96536.09;;;-2.97;97.91
70968;BME280;58629;48.808;8.820;2022-12-08T05:21:27;96529.41;;;-2.98;97.79
70968;BME280;58629;48.808;8.820;2022-12-08T05:23:52;96527.25;;;-2.96;98.49
70968;BME280;58629;48.808;8.820;2022-12-08T05:26:17;96530.59;;;-2.96;97.70
70968;BME280;58629;48.808;8.820;2022-12-08T05:28:42;96533.19;;;-2.96;98.21
70968;BME280;58629;48.808;8.820;2022-12-08T05:31:08;96538.09;;;-2.91;98.18
70968;BME280;58629;48.808;8.820;2022-12-08T05:33:34;96533.69;;;-2.90;98.46
70968;BME280;58629;48.808;8.820;2022-12-08T05:35:59;96536.53;;;-2.95;97.68
70968;BME280;58629;48.808;8.820;2022-12-08T05:38:24;96538.69;;;-2.97;97.79
70968;BME280;58629;48.808;8.820;2022-12-08T05:40:49;96532.41;;;-2.96;96.96
70968;BME280;58629;48.808;8.820;2022-12-08T05:43:15;96526.38;;;-2.22;100.00
70968;BME280;58629;48.808;8.820;2022-12-08T05:45:40;96530.28;;;-1.40;100.00
70968;BME280;58629;48.808;8.820;2022-12-08T05:48:05;96523.00;;;-0.44;100.00
70968;BME280;58629;48.808;8.820;2022-12-08T05:50:31;96525.88;;;0.30;100.00
70968;BME280;58629;48.808;8.820;2022-12-08T05:52:56;96524.94;;;0.81;100.00
70968;BME280;58629;48.808;8.820;2022-12-08T05:55:21;96518.28;;;1.24;100.00
70968;BME280;58629;48.808;8.820;2022-12-08T05:57:47;96513.63;;;1.51;100.00
70968;BME280;58629;48.808;8.820;2022-12-08T06:00:12;96519.06;;;1.79;100.00
70968;BME280;58629;48.808;8.820;2022-12-08T06:02:38;96512.47;;;2.03;100.00
70968;BME280;58629;48.808;8.820;2022-12-08T06:05:03;96513.38;;;2.31;98.51
70968;BME280;58629;48.808;8.820;2022-12-08T06:07:29;96514.59;;;2.51;94.24
70968;BME280;58629;48.808;8.820;2022-12-08T06:09:54;96512.75;;;1.84;77.38
70968;BME280;58629;48.808;8.820;2022-12-08T06:12:19;96510.00;;;1.15;75.55
70968;BME280;58629;48.808;8.820;2022-12-08T06:14:45;96515.50;;;0.70;78.62
70968;BME280;58629;48.808;8.820;2022-12-08T06:17:10;96510.53;;;-0.05;78.57
70968;BME280;58629;48.808;8.820;2022-12-08T06:19:36;96508.59;;;-0.38;81.63
70968;BME280;58629;48.808;8.820;2022-12-08T06:22:01;96516.91;;;-0.77;82.41
70968;BME280;58629;48.808;8.820;2022-12-08T06:24:26;96514.59;;;-1.05;83.44
70968;BME280;58629;48.808;8.820;2022-12-08T06:26:51;96519.94;;;-1.36;84.79
70968;BME280;58629;48.808;8.820;2022-12-08T06:29:17;96518.72;;;-1.61;86.20
70968;BME280;58629;48.808;8.820;2022-12-08T06:31:42;96523.56;;;-1.79;87.58
70968;BME280;58629;48.808;8.820;2022-12-08T06:34:07;96523.22;;;-1.97;88.38
70968;BME280;58629;48.808;8.820;2022-12-08T06:39:54;96519.19;;;-2.29;90.10
70968;BME280;58629;48.808;8.820;2022-12-08T06:42:19;96515.44;;;-2.47;89.29
70968;BME280;58629;48.808;8.820;2022-12-08T06:45:03;96512.38;;;-2.52;91.56
70968;BME280;58629;48.808;8.820;2022-12-08T06:47:29;96510.19;;;-2.66;90.54
70968;BME280;58629;48.808;8.820;2022-12-08T06:49:54;96518.22;;;-2.87;90.77
70968;BME280;58629;48.808;8.820;2022-12-08T06:52:19;96521.06;;;-2.92;92.90
70968;BME280;58629;48.808;8.820;2022-12-08T06:54:45;96523.47;;;-2.99;93.39
70968;BME280;58629;48.808;8.820;2022-12-08T06:57:10;96532.00;;;-2.98;92.90
70968;BME280;58629;48.808;8.820;2022-12-08T06:59:35;96526.66;;;-3.05;92.37
70968;BME280;58629;48.808;8.820;2022-12-08T07:02:02;96526.97;;;-3.07;92.67
70968;BME280;58629;48.808;8.820;2022-12-08T07:04:27;96526.72;;;-3.17;92.55
70968;BME280;58629;48.808;8.820;2022-12-08T07:06:53;96523.09;;;-3.28;91.72
70968;BME280;58629;48.808;8.820;2022-12-08T07:09:18;96527.00;;;-3.34;93.03
70968;BME280;58629;48.808;8.820;2022-12-08T07:11:43;96521.94;;;-3.31;94.21
70968;BME280;58629;48.808;8.820;2022-12-08T07:14:09;96531.09;;;-3.33;93.47
70968;BME280;58629;48.808;8.820;2022-12-08T07:16:35;96531.09;;;-3.33;94.22
70968;BME280;58629;48.808;8.820;2022-12-08T07:19:00;96533.78;;;-3.30;93.58
70968;BME280;58629;48.808;8.820;2022-12-08T07:21:25;96530.13;;;-3.29;93.88
70968;BME280;58629;48.808;8.820;2022-12-08T07:23:51;96526.03;;;-3.30;93.03
70968;BME280;58629;48.808;8.820;2022-12-08T07:26:16;96529.69;;;-3.31;93.81
70968;BME280;58629;48.808;8.820;2022-12-08T07:28:42;96535.19;;;-3.32;94.05
70968;BME280;58629;48.808;8.820;2022-12-08T07:31:15;96535.72;;;-3.27;94.12
70968;BME280;58629;48.808;8.820;2022-12-08T07:33:41;96535.38;;;-3.25;94.08
70968;BME280;58629;48.808;8.820;2022-12-08T07:36:07;96536.88;;;-3.24;93.89
70968;BME280;58629;48.808;8.820;2022-12-08T07:38:32;96537.63;;;-3.24;94.41
70968;BME280;58629;48.808;8.820;2022-12-08T07:40:58;96542.47;;;-3.22;95.14
70968;BME280;58629;48.808;8.820;2022-12-08T07:43:23;96536.22;;;-3.21;95.77
70968;BME280;58629;48.808;8.820;2022-12-08T07:45:49;96539.75;;;-3.14;96.23
70968;BME280;58629;48.808;8.820;2022-12-08T07:48:15;96534.31;;;-3.09;96.43
70968;BME280;58629;48.808;8.820;2022-12-08T07:50:40;96527.38;;;-3.05;96.68
70968;BME280;58629;48.808;8.820;2022-12-08T07:53:06;96536.41;;;-2.99;97.08
70968;BME280;58629;48.808;8.820;2022-12-08T07:55:31;96535.50;;;-2.91;97.82
70968;BME280;58629;48.808;8.820;2022-12-08T07:57:57;96528.25;;;-2.85;96.88
70968;BME280;58629;48.808;8.820;2022-12-08T08:00:22;96520.66;;;-2.78;97.08
70968;BME280;58629;48.808;8.820;2022-12-08T08:02:48;96513.94;;;-2.79;96.46
70968;BME280;58629;48.808;8.820;2022-12-08T08:05:13;96520.38;;;-2.73;96.80
70968;BME280;58629;48.808;8.820;2022-12-08T08:07:39;96512.78;;;-2.66;97.70
70968;BME280;58629;48.808;8.820;2022-12-08T08:10:07;96509.50;;;-2.63;97.22
70968;BME280;58629;48.808;8.820;2022-12-08T08:12:33;96505.25;;;-2.55;96.67
70968;BME280;58629;48.808;8.820;2022-12-08T08:14:59;96502.66;;;-2.55;96.57
70968;BME280;58629;48.808;8.820;2022-12-08T08:17:25;96506.50;;;-2.49;96.72
70968;BME280;58629;48.808;8.820;2022-12-08T08:19:50;96508.50;;;-2.43;96.96
70968;BME280;58629;48.808;8.820;2022-12-08T08:22:15;96501.22;;;-2.37;96.87
70968;BME280;58629;48.808;8.820;2022-12-08T08:24:40;96499.88;;;-2.31;97.14
70968;BME280;58629;48.808;8.820;2022-12-08T08:27:05;96499.69;;;-2.23;97.61
70968;BME280;58629;48.808;8.820;2022-12-08T08:29:31;96509.47;;;-2.16;97.98
70968;BME280;58629;48.808;8.820;2022-12-08T08:31:56;96502.56;;;-2.09;97.77
70968;BME280;58629;48.808;8.820;2022-12-08T08:34:21;96509.00;;;-2.03;97.65
70968;BME280;58629;48.808;8.820;2022-12-08T08:36:47;96506.97;;;-1.94;97.93
70968;BME280;58629;48.808;8.820;2022-12-08T08:39:12;96509.38;;;-1.85;97.67
70968;BME280;58629;48.808;8.820;2022-12-08T08:41:38;96510.94;;;-1.81;97.32
70968;BME280;58629;48.808;8.820;2022-12-08T08:44:03;96506.66;;;-1.73;97.02
70968;BME280;58629;48.808;8.820;2022-12-08T08:46:29;96506.78;;;-1.66;97.99
70968;BME280;58629;48.808;8.820;2022-12-08T08:48:55;96510.19;;;-1.62;98.28
70968;BME280;58629;48.808;8.820;2022-12-08T08:51:20;96503.69;;;-1.52;97.51
70968;BME280;58629;48.808;8.820;2022-12-08T08:53:45;96500.88;;;-1.44;96.86
70968;BME280;58629;48.808;8.820;2022-12-08T08:56:13;96503.53;;;-1.40;97.16
70968;BME280;58629;48.808;8.820;2022-12-08T08:58:39;96502.53;;;-1.36;97.71
70968;BME280;58629;48.808;8.820;2022-12-08T09:01:05;96494.53;;;-1.27;98.29
70968;BME280;58629;48.808;8.820;2022-12-08T09:03:30;96496.97;;;-1.15;98.52
70968;BME280;58629;48.808;8.820;2022-12-08T09:05:56;96492.69;;;-1.04;97.58
70968;BME280;58629;48.808;8.820;2022-12-08T09:08:21;96487.63;;;-0.97;97.85
70968;BME280;58629;48.808;8.820;2022-12-08T09:10:47;96482.13;;;-0.92;97.27
70968;BME280;58629;48.808;8.820;2022-12-08T09:13:12;96484.41;;;-0.87;97.20
70968;BME280;58629;48.808;8.820;2022-12-08T09:15:37;96483.03;;;-0.81;97.79
70968;BME280;58629;48.808;8.820;2022-12-08T09:18:03;96479.03;;;-0.75;98.61
70968;BME280;58629;48.808;8.820;2022-12-08T09:20:31;96476.56;;;-0.68;98.47
70968;BME280;58629;48.808;8.820;2022-12-08T09:22:56;96473.66;;;-0.63;98.90
70968;BME280;58629;48.808;8.820;2022-12-08T09:25:22;96465.16;;;-0.60;98.66
70968;BME280;58629;48.808;8.820;2022-12-08T09:27:47;96464.91;;;-0.51;98.96
70968;BME280;58629;48.808;8.820;2022-12-08T09:30:12;96472.81;;;-0.44;98.76
70968;BME280;58629;48.808;8.820;2022-12-08T09:32:38;96471.03;;;-0.40;98.09
70968;BME280;58629;48.808;8.820;2022-12-08T09:35:04;96474.81;;;-0.34;97.75
70968;BME280;58629;48.808;8.820;2022-12-08T09:37:29;96476.47;;;-0.23;98.41
70968;BME280;58629;48.808;8.820;2022-12-08T09:39:55;96479.53;;;-0.14;98.70
70968;BME280;58629;48.808;8.820;2022-12-08T09:42:43;96469.94;;;-0.10;97.71
70968;BME280;58629;48.808;8.820;2022-12-08T09:45:13;96471.50;;;-0.05;97.72
70968;BME280;58629;48.808;8.820;2022-12-08T09:47:47;96476.69;;;-0.05;97.27
70968;BME280;58629;48.808;8.820;2022-12-08T09:50:19;96472.28;;;-0.01;97.41
70968;BME280;58629;48.808;8.820;2022-12-08T09:55:45;96470.22;;;0.12;97.25
70968;BME280;58629;48.808;8.820;2022-12-08T09:58:43;96464.31;;;0.18;96.44
70968;BME280;58629;48.808;8.820;2022-12-08T10:01:12;96458.50;;;0.28;97.09
70968;BME280;58629;48.808;8.820;2022-12-08T10:03:37;96463.78;;;0.35;97.07
70968;BME280;58629;48.808;8.820;2022-12-08T10:06:26;96457.56;;;0.43;96.56
70968;BME280;58629;48.808;8.820;2022-12-08T10:08:57;96458.44;;;0.58;96.66
70968;BME280;58629;48.808;8.820;2022-12-08T10:11:31;96451.81;;;0.67;95.34
70968;BME280;58629;48.808;8.820;2022-12-08T10:14:20;96454.19;;;0.79;95.15
70968;BME280;58629;48.808;8.820;2022-12-08T10:16:48;96445.00;;;0.93;94.42
70968;BME280;58629;48.808;8.820;2022-12-08T10:19:21;96433.94;;;1.06;92.91
70968;BME280;58629;48.808;8.820;2022-12-08T10:21:48;96438.78;;;1.08;92.38
70968;BME280;58629;48.808;8.820;2022-12-08T10:24:28;96441.41;;;1.11;93.31
70968;BME280;58629;48.808;8.820;2022-12-08T10:26:55;96430.66;;;1.16;92.11
70968;BME280;58629;48.808;8.820;2022-12-08T10:29:22;96426.97;;;1.21;92.20
70968;BME280;58629;48.808;8.820;2022-12-08T10:31:47;96434.06;;;1.24;92.27
70968;BME280;58629;48.808;8.820;2022-12-08T10:34:18;96427.78;;;1.28;91.64
70968;BME280;58629;48.808;8.820;2022-12-08T10:36:49;96419.63;;;1.37;91.85
70968;BME280;58629;48.808;8.820;2022-12-08T10:39:36;96421.53;;;1.47;91.35
70968;BME280;58629;48.808;8.820;2022-12-08T10:44:53;96420.53;;;1.58;91.45
70968;BME280;58629;48.808;8.820;2022-12-08T10:47:21;96417.56;;;1.63;91.31
70968;BME280;58629;48.808;8.820;2022-12-08T10:50:15;96406.38;;;1.66;90.18
70968;BME280;58629;48.808;8.820;2022-12-08T10:52:46;96411.25;;;1.71;90.24
70968;BME280;58629;48.808;8.820;2022-12-08T10:55:19;96406.03;;;1.75;90.00
70968;BME280;58629;48.808;8.820;2022-12-08T10:57:45;96404.97;;;1.80;89.43
70968;BME280;58629;48.808;8.820;2022-12-08T11:00:15;96397.50;;;1.82;88.37
70968;BME280;58629;48.808;8.820;2022-12-08T11:03:01;96397.16;;;1.87;89.45
70968;BME280;58629;48.808;8.820;2022-12-08T11:05:32;96391.59;;;1.88;88.69
70968;BME280;58629;48.808;8.820;2022-12-08T11:07:58;96390.44;;;1.89;88.70
70968;BME280;58629;48.808;8.820;2022-12-08T11:10:44;96385.25;;;1.93;89.74
70968;BME280;58629;48.808;8.820;2022-12-08T11:13:17;96383.38;;;1.93;90.60
70968;BME280;58629;48.808;8.820;2022-12-08T11:15:44;96368.84;;;1.92;90.47
70968;BME280;58629;48.808;8.820;2022-12-08T11:18:37;96370.34;;;1.97;90.15
70968;BME280;58629;48.808;8.820;2022-12-08T11:21:14;96374.47;;;1.98;89.45
70968;BME280;58629;48.808;8.820;2022-12-08T11:23:41;96374.41;;;1.91;89.37
70968;BME280;58629;48.808;8.820;2022-12-08T11:26:17;96371.41;;;1.85;90.61
70968;BME280;58629;48.808;8.820;2022-12-08T11:28:45;96369.94;;;1.88;91.81
70968;BME280;58629;48.808;8.820;2022-12-08T11:33:52;96366.22;;;1.92;89.60
70968;BME280;58629;48.808;8.820;2022-12-08T11:36:19;96359.13;;;1.93;88.20
70968;BME280;58629;48.808;8.820;2022-12-08T11:38:47;96353.19;;;1.96;87.36
70968;BME280;58629;48.808;8.820;2022-12-08T11:41:18;96358.81;;;2.08;88.40
70968;BME280;58629;48.808;8.820;2022-12-08T11:43:56;96348.38;;;2.12;87.79
70968;BME280;58629;48.808;8.820;2022-12-08T11:46:26;96355.84;;;2.20;87.52
70968;BME280;58629;48.808;8.820;2022-12-08T11:49:00;96351.75;;;2.19;86.49
70968;BME280;58629;48.808;8.820;2022-12-08T11:51:58;96348.78;;;2.28;87.37
70968;BME280;58629;48.808;8.820;2022-12-08T11:54:30;96348.81;;;2.31;86.90
70968;BME280;58629;48.808;8.820;2022-12-08T11:56:58;96349.56;;;2.35;87.55
70968;BME280;58629;48.808;8.820;2022-12-08T11:59:33;96349.94;;;2.37;86.50
70968;BME280;58629;48.808;8.820;2022-12-08T12:02:03;96337.25;;;2.39;87.02
70968;BME280;58629;48.808;8.820;2022-12-08T12:13:12;96339.09;;;2.46;84.62
70968;BME280;58629;48.808;8.820;2022-12-08T12:18:40;96330.50;;;2.35;84.31
70968;BME280;58629;48.808;8.820;2022-12-08T12:21:15;96334.22;;;2.27;84.11
70968;BME280;58629;48.808;8.820;2022-12-08T12:23:51;96332.72;;;2.22;85.40
70968;BME280;58629;48.808;8.820;2022-12-08T12:26:20;96327.13;;;2.20;85.26
70968;BME280;58629;48.808;8.820;2022-12-08T12:28:54;96318.94;;;2.22;85.51
70968;BME280;58629;48.808;8.820;2022-12-08T12:31:26;96323.78;;;2.23;85.49
70968;BME280;58629;48.808;8.820;2022-12-08T12:34:02;96312.56;;;2.23;85.05
70968;BME280;58629;48.808;8.820;2022-12-08T12:36:29;96315.94;;;2.27;85.10
70968;BME280;58629;48.808;8.820;2022-12-08T12:38:56;96315.19;;;2.30;85.03
70968;BME280;58629;48.808;8.820;2022-12-08T12:41:42;96316.31;;;2.36;84.93
70968;BME280;58629;48.808;8.820;2022-12-08T12:46:53;96303.66;;;2.45;84.82
70968;BME280;58629;48.808;8.820;2022-12-08T12:57:24;96285.72;;;2.54;84.18
70968;BME280;58629;48.808;8.820;2022-12-08T13:02:18;96289.06;;;2.58;84.20
70968;BME280;58629;48.808;8.820;2022-12-08T13:04:52;96292.81;;;2.60;84.97
70968;BME280;58629;48.808;8.820;2022-12-08T13:07:32;96292.81;;;2.60;85.29
70968;BME280;58629;48.808;8.820;2022-12-08T13:10:10;96286.47;;;2.61;85.03
70968;BME280;58629;48.808;8.820;2022-12-08T13:12:36;96292.06;;;2.60;84.56
70968;BME280;58629;48.808;8.820;2022-12-08T13:15:04;96293.19;;;2.59;84.37
70968;BME280;58629;48.808;8.820;2022-12-08T13:17:32;96292.44;;;2.58;84.16
70968;BME280;58629;48.808;8.820;2022-12-08T13:20:03;96297.31;;;2.56;83.32
70968;BME280;58629;48.808;8.820;2022-12-08T13:28:28;96288.72;;;2.56;83.88
70968;BME280;58629;48.808;8.820;2022-12-08T13:30:59;96286.47;;;2.54;83.13
70968;BME280;58629;48.808;8.820;2022-12-08T13:33:28;96287.97;;;2.55;82.78
70968;BME280;58629;48.808;8.820;2022-12-08T13:36:00;96287.97;;;2.55;83.32
70968;BME280;58629;48.808;8.820;2022-12-08T13:38:29;96287.22;;;2.55;83.26
70968;BME280;58629;48.808;8.820;2022-12-08T13:40:56;96284.63;;;2.55;83.94
70968;BME280;58629;48.808;8.820;2022-12-08T13:43:40;96284.22;;;2.56;83.79
70968;BME280;58629;48.808;8.820;2022-12-08T13:46:09;96282.38;;;2.57;83.38
70968;BME280;58629;48.808;8.820;2022-12-08T13:48:50;96275.28;;;2.57;84.33
70968;BME280;58629;48.808;8.820;2022-12-08T13:51:37;96277.91;;;2.57;84.13
70968;BME280;58629;48.808;8.820;2022-12-08T13:54:07;96282.00;;;2.58;83.56
70968;BME280;58629;48.808;8.820;2022-12-08T13:56:39;96274.53;;;2.57;83.33
70968;BME280;58629;48.808;8.820;2022-12-08T14:01:53;96268.19;;;2.51;83.06
70968;BME280;58629;48.808;8.820;2022-12-08T14:04:21;96265.94;;;2.53;83.21
70968;BME280;58629;48.808;8.820;2022-12-08T14:06:50;96272.31;;;2.55;82.76
70968;BME280;58629;48.808;8.820;2022-12-08T14:09:22;96267.44;;;2.54;82.09
70968;BME280;58629;48.808;8.820;2022-12-08T14:11:57;96277.13;;;2.50;82.84
70968;BME280;58629;48.808;8.820;2022-12-08T14:14:29;96270.78;;;2.44;83.24